Flight Track Log - Related Links

Times and Time Zones

All times are in EDT time to prevent confusion due to time zone crossing. See the SWA1841 flight status page for this flight to view local times or setup timezone preferences in your user account.

Time Position Orientation Groundspeed Altitude Reporting Facility
EDT Latitude Longitude Course Direction KTS MPH feet Rate Location/Type
Wed 05:27:54 PM 33.4333 -112.0167 249° West 181 208 1,600  Level Phoenix TRACON
Wed 05:28:40 PM 33.4206 -112.0572 249° West 163 188 3,000 2,111 Climbing Albuquerque Center
Wed 05:29:42 PM 33.3986 -112.1219 248° West 209 241 5,400 3,048 Climbing Albuquerque Center
Wed 05:30:44 PM 33.3567 -112.1778 228° Southwest 245 282 9,300 3,194 Climbing Albuquerque Center
Wed 05:31:46 PM 33.2847 -112.1411 157° South 290 334 12,000 2,613 Climbing Albuquerque Center
Wed 05:32:48 PM 33.2031 -112.0931 154° Southeast 324 373 14,700 2,710 Climbing Albuquerque Center
Wed 05:33:50 PM 33.1119 -112.0397 154° Southeast 362 417 17,600 2,613 Climbing Albuquerque Center
Wed 05:34:52 PM 32.9931 -111.9700 154° Southeast 402 463 20,100 2,419 Climbing Albuquerque Center
Wed 05:35:54 PM 32.8914 -111.9014 150° Southeast 420 483 22,600 2,371 Climbing Albuquerque Center
Wed 05:36:56 PM 32.8231 -111.7692 122° Southeast 470 541 25,000 2,098 Climbing Albuquerque Center
Wed 05:37:57 PM 32.7567 -111.6306 120° Southeast 484 557 26,900 1,707 Climbing Albuquerque Center
Wed 05:38:59 PM 32.6892 -111.4867 119° Southeast 498 573 28,500 1,500 Climbing Albuquerque Center
Wed 05:40:01 PM 32.6186 -111.3383 119° Southeast 513 590 30,000 1,452 Climbing Albuquerque Center
Wed 05:41:03 PM 32.5314 -111.1542 119° Southeast 531 611 31,500 1,258 Climbing Albuquerque Center
Wed 05:42:05 PM 32.4564 -110.9986 120° Southeast 542 624 32,600 968 Climbing Albuquerque Center
Wed 05:43:07 PM 32.3769 -110.8369 120° Southeast 562 647 33,500 1,161 Climbing Albuquerque Center
Wed 05:44:09 PM 32.2978 -110.6719 120° Southeast 574 661 35,000 1,659 Climbing Albuquerque Center
Wed 05:45:10 PM 32.2378 -110.4972 112° Southeast 580 667 36,900 976 Climbing Albuquerque Center
Wed 05:46:12 PM 32.2181 -110.2897 96° East 585 673 37,000 48 Climbing Albuquerque Center
Wed 05:47:14 PM 32.1994 -110.1036 97° East 580 667 37,000  Level Albuquerque Center
Wed 05:48:16 PM 32.1822 -109.9153 96° East 583 671 37,000  Level Albuquerque Center
Wed 05:49:18 PM 32.1633 -109.6897 96° East 584 672 37,000  Level Albuquerque Center
Wed 05:50:20 PM 32.1467 -109.5044 96° East 579 666 37,000  Level Albuquerque Center
Wed 05:51:22 PM 32.1292 -109.3189 96° East 576 663 37,000  Level Albuquerque Center
Wed 05:52:24 PM 32.1125 -109.1347 96° East 575 662 37,000  Level Albuquerque Center
Wed 05:53:26 PM 32.0967 -108.9475 96° East 579 666 37,000  Level Albuquerque Center
Wed 05:54:27 PM 32.0747 -108.7256 97° East 578 665 37,000  Level Albuquerque Center
Wed 05:55:29 PM 32.0564 -108.5425 97° East 572 658 37,000  Level Albuquerque Center
Wed 05:56:31 PM 32.0394 -108.3592 96° East 570 656 37,000  Level Albuquerque Center
Wed 05:57:32 PM 32.0208 -108.1769 97° East 569 655 37,000  Level Albuquerque Center
Wed 05:58:34 PM 32.0003 -107.9700 97° East 569 655 37,000  Level Albuquerque Center
Wed 05:59:36 PM 31.9817 -107.7875 97° East 566 651 37,000  Level Albuquerque Center
Wed 06:00:38 PM 31.9631 -107.6058 97° East 565 650 37,000  Level Albuquerque Center
Wed 06:01:39 PM 31.9442 -107.4261 97° East 562 647 37,000  Level Albuquerque Center
Wed 06:02:41 PM 31.9219 -107.2106 97° East 559 643 37,000  Level Albuquerque Center
Wed 06:03:43 PM 31.9017 -107.0331 98° East 555 639 37,000  Level Albuquerque Center
Wed 06:04:45 PM 31.8822 -106.8519 97° East 561 646 37,000  Level Albuquerque Center
Wed 06:05:46 PM 31.8614 -106.6692 98° East 569 655 37,000  Level Albuquerque Center
Wed 06:06:48 PM 31.8397 -106.4889 98° East 574 661 37,000  Level Albuquerque Center
Wed 06:07:50 PM 31.8200 -106.3014 97° East 579 666 37,000  Level Albuquerque Center
Wed 06:08:52 PM 31.7919 -106.0811 98° East 568 654 37,000  Level Albuquerque Center
Wed 06:09:53 PM 31.7694 -105.8975 98° East 569 655 37,000  Level Albuquerque Center
Wed 06:10:55 PM 31.7464 -105.7128 98° East 570 656 37,000  Level Albuquerque Center
Wed 06:11:57 PM 31.7242 -105.5294 98° East 566 651 37,000  Level Albuquerque Center
Wed 06:12:59 PM 31.7022 -105.3458 98° East 566 651 37,000  Level Albuquerque Center
Wed 06:14:00 PM 31.6786 -105.1625 99° East 566 651 37,000  Level Albuquerque Center
Wed 06:15:02 PM 31.6569 -104.9761 98° East 571 657 37,000  Level Albuquerque Center
Wed 06:16:04 PM 31.6331 -104.7897 99° East 569 655 37,000 -48 Level Albuquerque Center
Wed 06:17:06 PM 31.6042 -104.5689 99° East 572 658 36,900 -48 Descending Albuquerque Center
Wed 06:18:08 PM 31.5789 -104.3825 99° East 574 661 36,900 49 Level Albuquerque Center
Wed 06:19:09 PM 31.5542 -104.2000 99° East 572 658 37,000  Climbing Albuquerque Center
Wed 06:20:11 PM 31.5306 -104.0203 99° East 566 651 36,900 -48 Descending Albuquerque Center
Wed 06:21:13 PM 31.5067 -103.8392 99° East 563 648 36,900 48 Level Albuquerque Center
Wed 06:22:15 PM 31.4822 -103.6622 99° East 559 643 37,000 48 Climbing Albuquerque Center
Wed 06:23:17 PM 31.4522 -103.4453 99° East 562 647 37,000  Level Albuquerque Center
Wed 06:24:19 PM 31.4308 -103.2664 98° East 560 644 37,000  Level Albuquerque Center
Wed 06:25:21 PM 31.4086 -103.0842 98° East 564 649 37,000  Level Albuquerque Center
Wed 06:26:23 PM 31.3856 -102.9047 99° East 561 646 37,000  Level Albuquerque Center
Wed 06:27:25 PM 31.3622 -102.7244 99° East 561 646 37,000  Level Albuquerque Center
Wed 06:28:27 PM 31.3392 -102.5436 98° East 562 647 37,000  Level Albuquerque Center
Wed 06:29:29 PM 31.3108 -102.3300 99° East 572 658 37,000  Level Albuquerque Center
Wed 06:30:30 PM 31.2881 -102.1525 98° East 562 647 37,000  Level Albuquerque Center
Wed 06:31:32 PM 31.2644 -101.9742 99° East 559 643 37,000  Level Albuquerque Center
Wed 06:32:34 PM 31.2367 -101.7675 99° East 561 646 37,000  Level Albuquerque Center
Wed 06:33:42 PM 31.2119 -101.5892 99° East 557 641 37,000  Level Houston Center
Wed 06:34:44 PM 31.1883 -101.4122 99° East 555 639 37,000  Level Houston Center
Wed 06:35:46 PM 31.1597 -101.2058 99° East 555 639 37,000  Level Houston Center
Wed 06:36:48 PM 31.1347 -101.0283 99° East 554 638 37,000 -48 Level Houston Center
Wed 06:37:50 PM 31.1100 -100.8522 99° East 550 633 36,900  Descending Houston Center
Wed 06:39:00 PM 31.0817 -100.6726 100° East  Level FlightAware Approximate
Wed 06:39:54 PM 31.0592 -100.5036 100° East 545 627 37,000  Level Houston Center
Wed 06:40:56 PM 31.0342 -100.3283 99° East 547 629 37,000  Level Houston Center
Wed 06:41:58 PM 31.0078 -100.1558 100° East 542 624 37,000  Level Houston Center
Wed 06:43:01 PM 30.9775 -99.9472 100° East 542 624 37,000  Level Houston Center
Wed 06:44:03 PM 30.9514 -99.7736 100° East 542 624 37,000  Level Houston Center
Wed 06:45:05 PM 30.9242 -99.6000 100° East 543 625 37,000  Level Houston Center
Wed 06:46:07 PM 30.8967 -99.4256 100° East 546 628 37,000  Level Houston Center
Wed 06:47:09 PM 30.8689 -99.2514 100° East 547 629 37,000  Level Houston Center
Wed 06:48:11 PM 30.8400 -99.0700 100° East 544 626 37,000  Level Houston Center
Wed 06:49:13 PM 30.8125 -98.8953 100° East 543 625 37,000  Level Houston Center
Wed 06:50:15 PM 30.7856 -98.6897 99° East 545 627 37,000  Level Houston Center
Wed 06:51:18 PM 30.7697 -98.5119 96° East 547 629 37,000  Level Houston Center
Wed 06:52:20 PM 30.7528 -98.3369 96° East 543 625 37,000  Level Houston Center
Wed 06:53:22 PM 30.7367 -98.1608 96° East 543 625 37,000  Level Houston Center
Wed 06:54:24 PM 30.7197 -97.9872 96° East 541 623 37,000  Level Houston Center
Wed 06:55:26 PM 30.7022 -97.8139 97° East 538 619 37,000  Level Houston Center
Wed 06:56:28 PM 30.6817 -97.6133 97° East 537 618 37,000 -484 Level Houston Center
Wed 06:57:30 PM 30.6639 -97.4414 97° East 536 617 36,000 -1,839 Descending Houston Center
Wed 06:58:32 PM 30.6467 -97.2714 97° East 534 615 33,200 -2,832 Descending Houston Center
Wed 06:59:35 PM 30.6303 -97.1014 96° East 532 612 30,100 -2,928 Descending Houston Center
Wed 07:00:37 PM 30.6131 -96.9358 97° East 519 597 27,100 -2,903 Descending Houston Center
Wed 07:01:39 PM 30.5931 -96.7481 97° East 503 579 24,100 -2,661 Descending Houston Center
Wed 07:02:41 PM 30.5453 -96.6128 112° Southeast 466 536 21,600 -2,371 Descending Houston Center
Wed 07:03:43 PM 30.4631 -96.5164 135° Southeast 422 486 19,200 -2,308 Descending Houston Center
Wed 07:03:59 PM 30.4414 -96.4914 135° Southeast 390 449 18,600 -2,357 Descending Houston Center
Wed 07:05:07 PM 30.3622 -96.3961 134° Southeast 359 413 15,900 -2,167 Descending Houston Center
Wed 07:05:47 PM 30.3217 -96.3442 132° Southeast 364 419 14,700 -2,239 Descending Houston Center
Wed 07:06:14 PM 30.2828 -96.2986 135° Southeast 360 414 13,400 -2,226 Descending Houston Center
Wed 07:06:49 PM 30.2528 -96.2606 132° Southeast 358 412 12,400 -2,149 Descending Houston Center
Wed 07:07:21 PM 30.2039 -96.2108 139° Southeast 350 403 11,000 -1,355 Descending Houston Center
Wed 07:07:51 PM 30.1789 -96.1900 144° Southeast 341 392 11,000  Level Houston Center
Wed 07:08:17 PM 30.1333 -96.1681 157° South 314 361 11,000  Level Houston Center
Wed 07:08:53 PM 30.0978 -96.1489 155° Southeast 318 366 11,000  Level Houston Center
Wed 07:09:24 PM 30.0411 -96.1206 157° South 316 364 11,000  Level Houston Center
Wed 07:09:55 PM 30.0014 -96.0967 152° Southeast 318 366 11,000  Level Houston Center
Wed 07:10:13 PM 29.9794 -96.0864 158° South 317 365 11,000 -476 Level Houston Center
Wed 07:10:58 PM 29.9211 -96.0539 154° Southeast 317 365 10,500 -774 Descending Houston Center
Wed 07:11:15 PM 29.8936 -96.0408 158° South 313 360 10,200 -484 Descending Houston Center
Wed 07:12:00 PM 29.8436 -96.0131 154° Southeast 311 358 10,000 -393 Descending Houston Center
Wed 07:12:16 PM 29.8225 -95.9958 145° Southeast 279 321 9,800 -1,065 Descending Houston Center
Wed 07:13:02 PM 29.7956 -95.9486 123° Southeast 282 325 8,900 -1,377 Descending Houston Center
Wed 07:13:17 PM 29.7844 -95.9186 113° Southeast 285 328 8,400 -1,258 Descending Houston Center
Wed 07:14:04 PM 29.7600 -95.8700 120° Southeast 274 315 7,600 -1,211 Descending Houston Center
Wed 07:15:06 PM 29.7261 -95.7958 118° Southeast 265 305 6,200 -1,171 Descending Houston Center
Wed 07:15:26 PM 29.7092 -95.7564 116° Southeast 260 299 6,000 -194 Descending Houston Center
Wed 07:16:08 PM 29.6867 -95.7103 119° Southeast 251 289 6,000 -98 Level Houston Center
Wed 07:16:27 PM 29.6778 -95.6881 115° Southeast 240 276 5,900 -774 Descending Houston Center
Wed 07:17:10 PM 29.6847 -95.6372 81° East 253 291 5,200 -1,082 Descending Houston Center
Wed 07:17:28 PM 29.6944 -95.6139 64° Northeast 252 290 4,800 -1,645 Descending Houston Center
Wed 07:18:12 PM 29.7142 -95.5658 65° Northeast 246 283 3,500 -1,742 Descending Houston Center
Wed 07:18:30 PM 29.7231 -95.5358 71° East 244 281 3,000 -484 Descending Houston Center
Wed 07:19:14 PM 29.7392 -95.4964 65° Northeast 240 276 3,000 -300 Level Houston Center
Wed 07:19:30 PM 29.7406 -95.4736 86° East 185 213 2,700 -833 Descending Houston Center
Wed 07:20:26 PM 29.7442 -95.4203 86° East 174 200 2,000 -385 Descending Houston Center
Wed 07:21:19 PM 29.7344 -95.3878 109° East 178 205 2,000 -209 Level Houston Center
Wed 07:22:21 PM 29.7039 -95.3478 131° Southeast 154 177 1,600 -532 Descending Houston Center
Wed 07:23:23 PM 29.6800 -95.3206 135° Southeast 135 155 900 -677 Descending Houston Center
Wed 07:24:25 PM 29.6553 -95.2917 135° Southeast 129 148 200 -387 Descending Houston Center
Wed 07:25:27 PM 29.6303 -95.2631 135° Southeast 128 147 100 -97 Descending Houston Center
Wed 07:27:00 PM 29.6333 -95.2667 319° Northwest  Level FlightAware Approximate

Login

Don't have an account? Register now (free) for customized features, flight alerts, and more!